createdAt,value
2023-04-25T00:00:33.170Z,21.90
2023-04-25T00:03:22.866Z,22.90
2023-04-25T00:05:53.246Z,20.50
2023-04-25T00:08:21.791Z,19.70
2023-04-25T00:10:50.807Z,20.30
2023-04-25T00:13:19.262Z,21.50
2023-04-25T00:15:49.492Z,19.50
2023-04-25T00:18:19.272Z,19.30
2023-04-25T00:20:59.942Z,22.30
2023-04-25T00:23:28.903Z,21.90
2023-04-25T00:25:57.522Z,22.60
2023-04-25T00:28:26.175Z,25.50
2023-04-25T00:30:54.532Z,21.20
2023-04-25T00:33:23.150Z,23.40
2023-04-25T00:35:51.650Z,23.80
2023-04-25T00:38:20.149Z,25.40
2023-04-25T00:40:49.010Z,20.00
2023-04-25T00:43:17.621Z,23.60
2023-04-25T00:45:46.230Z,21.90
2023-04-25T00:48:15.753Z,25.70
2023-04-25T00:50:50.675Z,21.80
2023-04-25T00:53:19.352Z,27.60
2023-04-25T00:55:48.291Z,24.20
2023-04-25T00:58:16.850Z,24.20
2023-04-25T01:00:47.148Z,24.50
2023-04-25T01:03:17.783Z,25.30
2023-04-25T01:05:46.604Z,22.80
2023-04-25T01:08:15.599Z,21.60
2023-04-25T01:10:44.382Z,24.80
2023-04-25T01:13:12.872Z,22.60
2023-04-25T01:15:41.489Z,23.10
2023-04-25T01:18:10.461Z,20.60
2023-04-25T01:20:39.559Z,21.50
2023-04-25T01:23:08.329Z,24.10
2023-04-25T01:25:37.184Z,23.00
2023-04-25T01:28:06.037Z,24.50
2023-04-25T01:30:35.059Z,22.50
2023-04-25T01:33:03.938Z,22.90
2023-04-25T01:35:32.911Z,24.10
2023-04-25T01:38:01.553Z,21.80
2023-04-25T01:40:30.079Z,20.10
2023-04-25T01:42:59.753Z,21.90
2023-04-25T01:45:28.466Z,21.30
2023-04-25T01:48:00.547Z,19.60
2023-04-25T01:50:29.133Z,20.50
2023-04-25T01:52:57.903Z,22.50
2023-04-25T01:55:26.787Z,21.10
2023-04-25T01:58:03.842Z,19.70
2023-04-25T02:00:55.593Z,19.00
2023-04-25T02:03:25.680Z,18.40
2023-04-25T02:05:54.737Z,19.60
2023-04-25T02:08:23.374Z,24.30
2023-04-25T02:10:52.140Z,20.10
2023-04-25T02:13:21.858Z,24.50
2023-04-25T02:16:06.939Z,22.10
2023-04-25T02:18:35.491Z,20.70
2023-04-25T02:21:13.165Z,22.10
2023-04-25T02:23:41.804Z,20.60
2023-04-25T02:26:12.698Z,23.20
2023-04-25T02:28:41.454Z,23.70
2023-04-25T02:31:12.618Z,20.20
2023-04-25T02:33:41.353Z,16.00
2023-04-25T02:36:10.099Z,18.60
2023-04-25T02:38:39.017Z,18.20
2023-04-25T02:41:07.733Z,19.60
2023-04-25T02:43:36.335Z,18.50
2023-04-25T02:46:04.960Z,21.80
2023-04-25T02:48:33.731Z,19.60
2023-04-25T02:51:02.220Z,19.70
2023-04-25T02:53:31.610Z,18.30
2023-04-25T02:56:00.430Z,18.20
2023-04-25T02:58:29.006Z,16.60
2023-04-25T03:00:57.810Z,18.70
2023-04-25T03:03:26.396Z,19.90
2023-04-25T03:05:55.209Z,18.70
2023-04-25T03:08:30.764Z,17.80
2023-04-25T03:10:59.794Z,20.00
2023-04-25T03:13:30.583Z,20.60
2023-04-25T03:15:59.390Z,19.10
2023-04-25T03:18:27.962Z,19.40
2023-04-25T03:20:56.997Z,19.30
2023-04-25T03:23:27.169Z,18.40
2023-04-25T03:25:55.882Z,19.20
2023-04-25T03:28:24.406Z,21.30
2023-04-25T03:30:53.366Z,20.10
2023-04-25T03:33:22.193Z,24.10
2023-04-25T03:35:51.281Z,23.20
2023-04-25T03:38:20.312Z,21.20
2023-04-25T03:40:49.325Z,19.30
2023-04-25T03:43:41.032Z,20.90
2023-04-25T03:46:12.991Z,21.00
2023-04-25T03:48:41.771Z,20.10
2023-04-25T03:51:11.372Z,21.90
2023-04-25T03:53:42.162Z,20.90
2023-04-25T03:56:29.372Z,20.60
2023-04-25T03:59:03.693Z,19.60
2023-04-25T04:01:32.912Z,22.30
2023-04-25T04:04:01.757Z,21.20
2023-04-25T04:06:31.006Z,21.30
2023-04-25T04:09:21.032Z,23.00
2023-04-25T04:11:49.734Z,25.40
2023-04-25T04:14:18.304Z,25.90
2023-04-25T04:16:49.163Z,24.20
2023-04-25T04:19:17.956Z,23.50
2023-04-25T04:21:56.493Z,24.10
2023-04-25T04:24:25.231Z,25.00
2023-04-25T04:27:07.214Z,24.40
2023-04-25T04:32:33.933Z,22.60
2023-04-25T04:35:02.695Z,23.50
2023-04-25T04:37:31.876Z,20.00
2023-04-25T04:40:06.656Z,34.80
2023-04-25T04:42:48.551Z,21.60
2023-04-25T04:45:39.586Z,20.40
2023-04-25T04:48:23.174Z,17.80
2023-04-25T04:51:18.021Z,20.30
2023-04-25T04:54:06.258Z,20.00
2023-04-25T04:57:07.407Z,19.10
2023-04-25T04:59:55.924Z,18.90
2023-04-25T05:02:44.963Z,16.70
2023-04-25T05:05:41.616Z,18.50
2023-04-25T05:08:28.482Z,19.80
2023-04-25T05:11:15.730Z,18.40
2023-04-25T05:13:59.228Z,19.60
2023-04-25T05:16:48.428Z,20.20
2023-04-25T05:19:38.762Z,19.70
2023-04-25T05:22:45.882Z,18.70
2023-04-25T05:25:26.466Z,20.50
2023-04-25T05:28:22.268Z,19.10
2023-04-25T05:31:11.120Z,17.30
2023-04-25T05:34:01.092Z,19.50
2023-04-25T05:36:42.193Z,19.80
2023-04-25T05:39:11.182Z,22.10
2023-04-25T05:41:54.751Z,21.30
2023-04-25T05:44:41.937Z,18.80
2023-04-25T05:47:29.075Z,21.70
2023-04-25T05:50:06.862Z,18.60
2023-04-25T05:53:01.757Z,26.40
2023-04-25T05:55:44.998Z,19.10
2023-04-25T05:58:24.777Z,20.60
2023-04-25T06:00:55.908Z,20.30
2023-04-25T06:03:25.488Z,21.80
2023-04-25T06:05:54.685Z,16.60
2023-04-25T06:08:23.644Z,16.70
2023-04-25T06:10:52.357Z,21.30
2023-04-25T06:13:21.062Z,19.40
2023-04-25T06:15:49.918Z,18.60
2023-04-25T06:18:19.683Z,19.60
2023-04-25T06:20:48.496Z,17.20
2023-04-25T06:23:31.532Z,17.60
2023-04-25T06:26:12.116Z,17.70
2023-04-25T06:28:42.286Z,19.20
2023-04-25T06:31:12.741Z,18.20
2023-04-25T06:33:41.738Z,20.90
2023-04-25T06:36:10.776Z,18.40
2023-04-25T06:38:39.959Z,17.00
2023-04-25T06:41:08.692Z,23.70
2023-04-25T06:43:38.368Z,16.60
2023-04-25T06:46:19.082Z,21.50
2023-04-25T06:48:49.469Z,21.90
2023-04-25T06:51:18.897Z,23.00
2023-04-25T06:53:48.145Z,25.40
2023-04-25T06:56:25.853Z,20.70
2023-04-25T06:59:02.046Z,21.40
2023-04-25T07:01:36.836Z,24.10
2023-04-25T07:04:08.158Z,24.00
2023-04-25T07:06:44.063Z,23.50
2023-04-25T07:09:14.150Z,28.40
2023-04-25T07:11:44.213Z,22.80
2023-04-25T07:14:13.282Z,21.00
2023-04-25T07:16:42.273Z,21.40
2023-04-25T07:19:11.334Z,21.20
2023-04-25T07:21:40.078Z,20.00
2023-04-25T07:24:08.874Z,22.40
2023-04-25T07:26:39.709Z,21.20
2023-04-25T07:29:29.463Z,19.70
2023-04-25T07:32:01.191Z,21.60
2023-04-25T07:34:31.593Z,22.00
2023-04-25T07:37:00.614Z,24.50
2023-04-25T07:39:31.685Z,19.70
2023-04-25T07:42:01.699Z,22.30
2023-04-25T07:44:43.778Z,21.10
2023-04-25T07:47:13.472Z,20.00
2023-04-25T07:49:42.374Z,22.00
2023-04-25T07:52:11.266Z,23.40
2023-04-25T07:54:40.788Z,22.20
2023-04-25T07:57:16.352Z,21.60
2023-04-25T07:59:46.621Z,20.40
2023-04-25T08:02:15.758Z,22.60
2023-04-25T08:04:45.294Z,21.20
2023-04-25T08:07:16.223Z,23.90
2023-04-25T08:09:51.754Z,21.40
2023-04-25T08:12:26.262Z,22.30
2023-04-25T08:14:55.260Z,20.50
2023-04-25T08:17:23.934Z,22.40
2023-04-25T08:19:52.635Z,25.30
2023-04-25T08:22:27.423Z,22.80
2023-04-25T08:25:14.600Z,26.80
2023-04-25T08:27:43.512Z,20.00
2023-04-25T08:30:12.984Z,21.60
2023-04-25T08:32:42.527Z,22.40
2023-04-25T08:35:22.577Z,21.00
2023-04-25T08:37:52.677Z,20.90
2023-04-25T08:40:28.033Z,20.90
2023-04-25T08:42:59.472Z,20.20
2023-04-25T08:45:28.994Z,17.70
2023-04-25T08:47:58.382Z,19.20
2023-04-25T08:50:27.928Z,17.40
2023-04-25T08:52:56.773Z,21.30
2023-04-25T08:55:28.030Z,18.40
2023-04-25T08:57:59.327Z,16.80
2023-04-25T09:00:28.188Z,20.30
2023-04-25T09:03:00.388Z,20.30
2023-04-25T09:05:33.038Z,17.10
2023-04-25T09:08:02.157Z,16.90
2023-04-25T09:13:14.345Z,17.00
2023-04-25T09:16:02.903Z,14.50
2023-04-25T09:18:56.236Z,13.10
2023-04-25T09:21:25.541Z,15.00
2023-04-25T09:23:54.784Z,14.40
2023-04-25T09:26:23.489Z,11.30
2023-04-25T09:28:58.036Z,15.00
2023-04-25T09:31:27.289Z,12.10
2023-04-25T09:34:05.127Z,10.70
2023-04-25T09:36:44.886Z,11.60
2023-04-25T09:39:27.072Z,11.00
2023-04-25T09:42:02.465Z,9.90
2023-04-25T09:44:32.126Z,9.40
2023-04-25T09:47:01.236Z,9.20
2023-04-25T09:49:30.894Z,11.10
2023-04-25T09:52:06.160Z,10.80
2023-04-25T09:54:42.692Z,9.30
2023-04-25T09:57:16.699Z,11.60
2023-04-25T09:59:49.765Z,8.40
2023-04-25T10:02:22.040Z,9.00
2023-04-25T10:04:55.993Z,9.20
2023-04-25T10:07:32.512Z,7.70
2023-04-25T10:10:06.211Z,7.10
2023-04-25T10:12:35.122Z,7.90
2023-04-25T10:15:04.538Z,8.00
2023-04-25T10:17:33.265Z,8.70
2023-04-25T10:20:06.518Z,9.00
2023-04-25T10:22:46.159Z,9.60
2023-04-25T10:27:57.185Z,8.60
2023-04-25T10:30:25.921Z,6.80
2023-04-25T10:32:55.755Z,6.90
2023-04-25T10:35:33.870Z,5.60
2023-04-25T10:38:06.607Z,6.60
2023-04-25T10:40:35.291Z,5.30
2023-04-25T10:43:38.873Z,6.30
2023-04-25T10:46:30.751Z,6.40
2023-04-25T10:49:01.253Z,4.30
2023-04-25T10:51:40.112Z,4.90
2023-04-25T10:54:21.426Z,4.50
2023-04-25T10:56:49.900Z,4.90
2023-04-25T10:59:19.914Z,5.00
2023-04-25T11:01:50.506Z,6.50
2023-04-25T11:04:37.955Z,5.80
2023-04-25T11:07:32.921Z,8.30
2023-04-25T11:10:04.924Z,4.60
2023-04-25T11:12:33.428Z,5.70
2023-04-25T11:15:03.997Z,8.70
2023-04-25T11:17:32.708Z,4.90
2023-04-25T11:20:01.654Z,5.30
2023-04-25T11:22:31.181Z,2.40
2023-04-25T11:24:59.883Z,5.00
2023-04-25T11:27:28.547Z,5.60
2023-04-25T11:29:57.226Z,3.60
2023-04-25T11:32:27.612Z,5.30
2023-04-25T11:34:56.446Z,4.40
2023-04-25T11:37:24.996Z,5.80
2023-04-25T11:39:53.524Z,4.60
2023-04-25T11:42:22.158Z,6.50
2023-04-25T11:44:51.303Z,3.50
2023-04-25T11:47:19.987Z,3.40
2023-04-25T11:49:48.559Z,3.70
2023-04-25T11:52:17.215Z,5.00
2023-04-25T11:54:45.853Z,3.50
2023-04-25T11:57:14.932Z,5.00
2023-04-25T11:59:43.585Z,4.30
2023-04-25T12:02:26.044Z,3.20
2023-04-25T12:04:55.047Z,3.40
2023-04-25T12:07:24.060Z,7.50
2023-04-25T12:09:52.952Z,4.60
2023-04-25T12:12:21.677Z,3.10
2023-04-25T12:14:50.425Z,5.20
2023-04-25T12:17:18.979Z,3.70
2023-04-25T12:19:48.100Z,3.80
2023-04-25T12:22:24.642Z,3.60
2023-04-25T12:24:55.376Z,3.00
2023-04-25T12:27:33.250Z,4.60
2023-04-25T12:30:03.285Z,3.90
2023-04-25T12:32:32.064Z,4.20
2023-04-25T12:35:00.600Z,7.10
2023-04-25T12:37:30.213Z,4.60
2023-04-25T12:39:58.744Z,4.50
2023-04-25T12:42:27.397Z,4.40
2023-04-25T12:44:56.111Z,5.40
2023-04-25T12:47:25.086Z,5.20
2023-04-25T12:49:54.085Z,3.60
2023-04-25T12:52:22.597Z,5.10
2023-04-25T12:54:51.162Z,4.80
2023-04-25T12:57:20.405Z,5.30
2023-04-25T12:59:49.591Z,4.10
2023-04-25T13:02:18.171Z,4.30
2023-04-25T13:04:46.808Z,3.30
2023-04-25T13:07:15.421Z,4.40
2023-04-25T13:09:43.973Z,6.10
2023-04-25T13:12:12.537Z,5.90
2023-04-25T13:14:41.074Z,5.90
2023-04-25T13:17:09.806Z,3.30
2023-04-25T13:19:40.156Z,2.90
2023-04-25T13:22:08.767Z,3.90
2023-04-25T13:24:37.371Z,5.90
2023-04-25T13:27:05.950Z,3.70
2023-04-25T13:29:36.891Z,3.80
2023-04-25T13:32:06.516Z,7.80
2023-04-25T13:34:35.147Z,3.20
2023-04-25T13:37:03.588Z,4.40
2023-04-25T13:39:32.201Z,3.70
2023-04-25T13:42:01.539Z,4.60
2023-04-25T13:44:30.236Z,3.50
2023-04-25T13:46:58.791Z,5.20
2023-04-25T13:49:27.760Z,3.30
2023-04-25T13:51:56.380Z,2.60
2023-04-25T13:54:25.128Z,2.00
2023-04-25T13:57:01.088Z,4.00
2023-04-25T13:59:29.665Z,2.60
2023-04-25T14:01:58.170Z,2.80
2023-04-25T14:04:27.774Z,2.20
2023-04-25T14:06:56.480Z,4.80
2023-04-25T14:09:26.955Z,3.80
2023-04-25T14:11:56.022Z,6.10
2023-04-25T14:14:25.045Z,2.60
2023-04-25T14:16:55.305Z,5.50
2023-04-25T14:19:24.749Z,4.70
2023-04-25T14:21:53.309Z,3.60
2023-04-25T14:24:21.860Z,3.70
2023-04-25T14:26:50.389Z,5.60
2023-04-25T14:29:26.141Z,4.10
2023-04-25T14:31:55.645Z,4.10
2023-04-25T14:34:24.601Z,3.30
2023-04-25T14:36:53.466Z,4.40
2023-04-25T14:39:22.103Z,2.10
2023-04-25T14:41:50.644Z,3.70
2023-04-25T14:44:19.177Z,3.10
2023-04-25T14:46:48.044Z,2.80
2023-04-25T14:49:16.713Z,4.00
2023-04-25T14:51:45.181Z,3.90
2023-04-25T14:54:14.493Z,3.90
2023-04-25T14:56:43.126Z,4.30
2023-04-25T14:59:11.674Z,6.90
2023-04-25T15:01:40.460Z,5.10
2023-04-25T15:04:09.226Z,6.30
2023-04-25T15:06:37.798Z,5.10
2023-04-25T15:09:06.413Z,3.90
2023-04-25T15:11:34.972Z,4.70
2023-04-25T15:14:03.642Z,6.90
2023-04-25T15:16:32.685Z,6.40
2023-04-25T15:19:04.197Z,6.40
2023-04-25T15:21:32.885Z,5.20
2023-04-25T15:24:01.632Z,5.80
2023-04-25T15:26:30.255Z,4.30
2023-04-25T15:28:59.170Z,4.30
2023-04-25T15:31:27.792Z,10.40
2023-04-25T15:33:56.354Z,5.90
2023-04-25T15:36:24.841Z,4.80
2023-04-25T15:38:53.582Z,5.40
2023-04-25T15:41:22.331Z,4.60
2023-04-25T15:43:51.242Z,5.40
2023-04-25T15:46:20.124Z,5.80
2023-04-25T15:48:49.358Z,6.80
2023-04-25T15:51:17.986Z,8.40
2023-04-25T15:53:47.588Z,5.00
2023-04-25T15:56:16.177Z,4.50
2023-04-25T15:58:44.551Z,5.30
2023-04-25T16:01:13.079Z,4.50
2023-04-25T16:03:42.042Z,6.90
2023-04-25T16:06:11.011Z,6.00
2023-04-25T16:08:40.416Z,6.70
2023-04-25T16:11:09.204Z,4.60
2023-04-25T16:13:37.762Z,4.40
2023-04-25T16:16:06.615Z,4.10
2023-04-25T16:18:35.488Z,4.70
2023-04-25T16:21:04.255Z,5.40
2023-04-25T16:23:33.355Z,4.60
2023-04-25T16:26:01.992Z,4.40
2023-04-25T16:28:30.545Z,2.60
2023-04-25T16:31:11.357Z,2.10
2023-04-25T16:33:39.983Z,1.80
2023-04-25T16:36:08.813Z,2.50
2023-04-25T16:38:40.125Z,1.70
2023-04-25T16:41:08.867Z,2.50
2023-04-25T16:43:40.533Z,1.80
2023-04-25T16:46:09.360Z,2.60
2023-04-25T16:48:37.984Z,2.30
2023-04-25T16:51:06.580Z,2.60
2023-04-25T16:53:35.100Z,3.30
2023-04-25T16:56:04.242Z,3.40
2023-04-25T16:58:32.971Z,3.20
2023-04-25T17:01:02.126Z,2.10
2023-04-25T17:03:33.946Z,2.10
2023-04-25T17:06:04.610Z,2.10
2023-04-25T17:08:33.185Z,2.10
2023-04-25T17:11:02.207Z,3.00
2023-04-25T17:13:31.606Z,2.10
2023-04-25T17:16:01.151Z,2.20
2023-04-25T17:18:29.844Z,3.50
2023-04-25T17:20:58.490Z,2.60
2023-04-25T17:23:27.211Z,3.10
2023-04-25T17:25:56.115Z,2.70
2023-04-25T17:28:24.707Z,2.60
2023-04-25T17:30:53.271Z,2.40
2023-04-25T17:33:27.877Z,2.00
2023-04-25T17:35:56.561Z,2.00
2023-04-25T17:38:25.257Z,1.60
2023-04-25T17:40:53.870Z,2.80
2023-04-25T17:43:22.682Z,1.90
2023-04-25T17:45:51.384Z,1.60
2023-04-25T17:48:22.741Z,1.50
2023-04-25T17:50:51.668Z,2.50
2023-04-25T17:53:20.363Z,4.70
2023-04-25T17:55:50.701Z,5.10
2023-04-25T17:58:19.208Z,1.60
2023-04-25T18:00:48.142Z,1.40
2023-04-25T18:03:18.917Z,2.00
2023-04-25T18:05:47.571Z,2.00
2023-04-25T18:08:16.611Z,1.70
2023-04-25T18:10:45.631Z,1.70
2023-04-25T18:13:15.006Z,2.00
2023-04-25T18:15:43.606Z,2.90
2023-04-25T18:18:21.100Z,2.30
2023-04-25T18:20:49.766Z,2.20
2023-04-25T18:23:18.675Z,3.40
2023-04-25T18:25:47.259Z,2.40
2023-04-25T18:28:18.113Z,2.70
2023-04-25T18:30:47.611Z,2.40
2023-04-25T18:33:26.203Z,2.50
2023-04-25T18:35:59.043Z,2.60
2023-04-25T18:38:35.663Z,2.00
2023-04-25T18:41:26.977Z,1.90
2023-04-25T18:43:56.430Z,1.40
2023-04-25T18:46:25.065Z,2.20
2023-04-25T18:48:54.125Z,2.70
2023-04-25T18:51:32.504Z,2.10
2023-04-25T18:54:01.731Z,5.60
2023-04-25T18:56:30.841Z,2.70
2023-04-25T18:58:59.522Z,1.80
2023-04-25T19:01:28.236Z,2.10
2023-04-25T19:03:57.469Z,3.30
2023-04-25T19:06:28.145Z,2.30
2023-04-25T19:08:58.000Z,3.60
2023-04-25T19:11:26.859Z,3.30
2023-04-25T19:13:58.818Z,2.80
2023-04-25T19:16:27.677Z,4.80
2023-04-25T19:18:56.796Z,4.00
2023-04-25T19:21:25.483Z,4.10
2023-04-25T19:23:54.705Z,3.80
2023-04-25T19:26:24.965Z,3.60
2023-04-25T19:29:06.929Z,6.10
2023-04-25T19:31:36.506Z,3.70
2023-04-25T19:34:06.593Z,3.50
2023-04-25T19:36:36.638Z,3.80
2023-04-25T19:39:07.708Z,3.40
2023-04-25T19:41:37.086Z,3.70
2023-04-25T19:44:08.751Z,3.50
2023-04-25T19:46:37.913Z,3.60
2023-04-25T19:49:08.191Z,7.60
2023-04-25T19:51:37.558Z,4.90
2023-04-25T19:54:06.653Z,3.20
2023-04-25T19:56:35.259Z,2.70
2023-04-25T19:59:03.979Z,2.40
2023-04-25T20:01:32.654Z,3.50
2023-04-25T20:04:02.002Z,3.60
2023-04-25T20:06:30.657Z,2.80
2023-04-25T20:08:59.728Z,2.30
2023-04-25T20:11:29.711Z,2.60
2023-04-25T20:14:00.738Z,1.90
2023-04-25T20:16:29.467Z,2.70
2023-04-25T20:18:58.125Z,2.10
2023-04-25T20:21:27.900Z,2.50
2023-04-25T20:23:56.634Z,3.20
2023-04-25T20:26:26.274Z,2.50
2023-04-25T20:28:55.049Z,4.00
2023-04-25T20:31:23.984Z,2.30
2023-04-25T20:34:00.508Z,0.80
2023-04-25T20:36:29.890Z,0.70
2023-04-25T20:38:58.581Z,2.20
2023-04-25T20:41:27.244Z,0.60
2023-04-25T20:43:55.887Z,1.60
2023-04-25T20:46:25.321Z,1.40
2023-04-25T20:48:54.520Z,0.60
2023-04-25T20:51:23.656Z,0.90
2023-04-25T20:53:52.346Z,1.90
2023-04-25T20:56:21.012Z,2.50
2023-04-25T20:58:50.189Z,1.40
2023-04-25T21:01:19.514Z,1.20
2023-04-25T21:03:50.216Z,0.80
2023-04-25T21:06:19.066Z,2.10
2023-04-25T21:08:47.645Z,1.50
2023-04-25T21:11:16.388Z,1.20
2023-04-25T21:13:45.145Z,2.30
2023-04-25T21:16:13.809Z,2.70
2023-04-25T21:18:42.442Z,0.30
2023-04-25T21:21:10.920Z,0.70
2023-04-25T21:23:39.610Z,0.70
2023-04-25T21:26:08.240Z,0.90
2023-04-25T21:28:36.967Z,1.70
2023-04-25T21:31:05.601Z,1.20
2023-04-25T21:33:34.199Z,1.30
2023-04-25T21:36:02.893Z,1.20
2023-04-25T21:38:31.321Z,1.20
2023-04-25T21:40:59.964Z,1.10
2023-04-25T21:43:29.171Z,1.90
2023-04-25T21:46:21.369Z,1.00
2023-04-25T21:48:47.474Z,1.60
2023-04-25T21:51:17.179Z,0.70
2023-04-25T21:53:45.885Z,0.80
2023-04-25T21:56:14.414Z,0.90
2023-04-25T21:58:42.959Z,3.10
2023-04-25T22:01:11.749Z,0.80
2023-04-25T22:03:40.479Z,0.50
2023-04-25T22:06:09.168Z,3.00
2023-04-25T22:08:37.664Z,1.00
2023-04-25T22:11:07.952Z,3.10
2023-04-25T22:13:36.693Z,0.90
2023-04-25T22:16:06.486Z,0.90
2023-04-25T22:18:36.858Z,0.70
2023-04-25T22:21:05.630Z,1.20
2023-04-25T22:23:34.221Z,1.00
2023-04-25T22:26:02.803Z,0.70
2023-04-25T22:28:31.576Z,1.00
2023-04-25T22:31:00.281Z,1.10
2023-04-25T22:33:28.728Z,0.50
2023-04-25T22:36:01.322Z,0.80
2023-04-25T22:38:30.483Z,0.40
2023-04-25T22:40:58.935Z,1.20
2023-04-25T22:43:29.618Z,1.20
2023-04-25T22:45:59.209Z,0.60
2023-04-25T22:48:27.842Z,1.00
2023-04-25T22:51:06.528Z,0.70
2023-04-25T22:53:37.810Z,5.10
2023-04-25T22:56:08.136Z,1.10
2023-04-25T22:58:37.549Z,0.60
2023-04-25T23:01:11.717Z,0.80
2023-04-25T23:03:40.655Z,0.80
2023-04-25T23:06:19.319Z,1.40
2023-04-25T23:08:48.188Z,1.00
2023-04-25T23:11:16.794Z,1.40
2023-04-25T23:13:45.606Z,1.30
2023-04-25T23:16:14.245Z,2.00
2023-04-25T23:18:42.819Z,1.40
2023-04-25T23:21:12.570Z,1.10
2023-04-25T23:23:41.246Z,2.30
2023-04-25T23:26:10.471Z,1.20
2023-04-25T23:28:49.024Z,1.40
2023-04-25T23:31:18.787Z,1.80
2023-04-25T23:33:47.416Z,1.30
2023-04-25T23:36:22.112Z,1.70
2023-04-25T23:38:51.081Z,3.00
2023-04-25T23:41:20.163Z,1.70
2023-04-25T23:43:48.782Z,1.30
2023-04-25T23:46:17.458Z,1.50
2023-04-25T23:48:46.734Z,2.10
2023-04-25T23:51:15.399Z,1.70
2023-04-25T23:53:43.979Z,1.70
2023-04-25T23:56:12.445Z,1.30
2023-04-25T23:58:41.017Z,1.70
